AXB1781 VOML-VIDP
Flight info
| Callsign | AXB1781 |
|---|---|
| Flight time | 2h 30m |
| Altitude | 32000 |
| Route | MML Q12 KANTI W15 GGO/N0476F330 W67 MPG J5 PEGBO W67 EPKOS/N0478F320 W128 PPN/N0476F330 J40 SRD Z11 PUNOR Z4 UPMAV W79 BPL/N0476F340 Q24 BAVOX BAVOX7C |
| Aircraft | B738/M-SDE2E3FGHIRWXY/LB1 |
Departure
| Time | 2026-04-29 04:17 |
|---|---|
| Airport | Mangaluru International Airport (VOML) |
Arrival
| Time | 2026-04-29 06:48 |
|---|---|
| Airport | Indira Gandhi International Airport (VIDP) |
| Time | Latitude | Longitude | Altitude | Speed | Heading |
|---|---|---|---|---|---|
| 2026-04-29 03:35 | 12.94958 | 74.87298 | 317 ft | 0 kts | 352° |
| 2026-04-29 04:07 | 12.94948 | 74.87300 | 318 ft | 4 kts | 354° |
| 2026-04-29 04:07 | 12.94921 | 74.87300 | 315 ft | 4 kts | 6° |
| 2026-04-29 04:08 | 12.94895 | 74.87295 | 315 ft | 4 kts | 27° |
| 2026-04-29 04:08 | 12.94877 | 74.87280 | 316 ft | 1 kts | 59° |
| 2026-04-29 04:08 | 12.94875 | 74.87276 | 316 ft | 0 kts | 59° |
| 2026-04-29 04:10 | 12.94890 | 74.87301 | 317 ft | 8 kts | 59° |
| 2026-04-29 04:11 | 12.94934 | 74.87378 | 318 ft | 17 kts | 59° |
| 2026-04-29 04:11 | 12.95001 | 74.87492 | 318 ft | 18 kts | 59° |
| 2026-04-29 04:11 | 12.95019 | 74.87604 | 317 ft | 13 kts | 78° |
| 2026-04-29 04:11 | 12.95031 | 74.87689 | 316 ft | 13 kts | 126° |
| 2026-04-29 04:12 | 12.94962 | 74.87744 | 316 ft | 12 kts | 147° |
| 2026-04-29 04:12 | 12.94944 | 74.87817 | 316 ft | 12 kts | 59° |
| 2026-04-29 04:12 | 12.94991 | 74.87894 | 317 ft | 16 kts | 58° |
| 2026-04-29 04:12 | 12.95063 | 74.88014 | 317 ft | 24 kts | 58° |
| 2026-04-29 04:13 | 12.95158 | 74.88173 | 318 ft | 26 kts | 58° |
| 2026-04-29 04:13 | 12.95251 | 74.88329 | 318 ft | 25 kts | 58° |
| 2026-04-29 04:13 | 12.95341 | 74.88472 | 317 ft | 23 kts | 58° |
| 2026-04-29 04:13 | 12.95425 | 74.88611 | 316 ft | 23 kts | 58° |
| 2026-04-29 04:14 | 12.95515 | 74.88762 | 315 ft | 26 kts | 59° |
| 2026-04-29 04:14 | 12.95610 | 74.88919 | 316 ft | 25 kts | 59° |
| 2026-04-29 04:14 | 12.95700 | 74.89067 | 316 ft | 24 kts | 57° |
| 2026-04-29 04:14 | 12.95784 | 74.89207 | 318 ft | 23 kts | 58° |
| 2026-04-29 04:15 | 12.95865 | 74.89342 | 318 ft | 22 kts | 58° |
| 2026-04-29 04:15 | 12.95950 | 74.89466 | 319 ft | 21 kts | 40° |
| 2026-04-29 04:15 | 12.96025 | 74.89552 | 318 ft | 7 kts | 102° |
| 2026-04-29 04:15 | 12.96007 | 74.89560 | 318 ft | 1 kts | 192° |
| 2026-04-29 04:16 | 12.95994 | 74.89552 | 318 ft | 4 kts | 218° |
| 2026-04-29 04:16 | 12.95925 | 74.89443 | 319 ft | 50 kts | 238° |
| 2026-04-29 04:16 | 12.95607 | 74.88919 | 315 ft | 120 kts | 238° |
| 2026-04-29 04:16 | 12.95064 | 74.88019 | 324 ft | 174 kts | 239° |
| 2026-04-29 04:17 | 12.94413 | 74.86900 | 785 ft | 190 kts | 239° |
| 2026-04-29 04:17 | 12.93690 | 74.85665 | 1242 ft | 209 kts | 239° |
| 2026-04-29 04:17 | 12.92950 | 74.84391 | 2040 ft | 205 kts | 242° |
| 2026-04-29 04:17 | 12.92529 | 74.82990 | 2629 ft | 215 kts | 268° |
| 2026-04-29 04:18 | 12.92603 | 74.81381 | 2870 ft | 237 kts | 277° |
| 2026-04-29 04:18 | 12.92826 | 74.79670 | 3305 ft | 248 kts | 282° |
| 2026-04-29 04:18 | 12.93553 | 74.78032 | 3695 ft | 265 kts | 311° |
| 2026-04-29 04:18 | 12.95091 | 74.76959 | 4288 ft | 276 kts | 340° |
| 2026-04-29 04:19 | 12.97012 | 74.76659 | 4955 ft | 283 kts | 356° |
| 2026-04-29 04:19 | 12.98972 | 74.76542 | 5809 ft | 280 kts | 356° |
| 2026-04-29 04:19 | 13.00913 | 74.76367 | 6633 ft | 280 kts | 353° |
| 2026-04-29 04:19 | 13.02842 | 74.76000 | 7325 ft | 284 kts | 349° |
| 2026-04-29 04:20 | 13.04773 | 74.75521 | 8004 ft | 287 kts | 347° |
| 2026-04-29 04:20 | 13.06710 | 74.74958 | 8674 ft | 292 kts | 346° |
| 2026-04-29 04:20 | 13.08663 | 74.74330 | 9329 ft | 297 kts | 345° |
| 2026-04-29 04:20 | 13.10633 | 74.73652 | 9970 ft | 301 kts | 344° |
| 2026-04-29 04:21 | 13.12656 | 74.72926 | 10288 ft | 318 kts | 343° |
| 2026-04-29 04:21 | 13.14808 | 74.72131 | 10435 ft | 339 kts | 342° |
| 2026-04-29 04:21 | 13.17091 | 74.71270 | 10580 ft | 359 kts | 342° |
| 2026-04-29 04:21 | 13.19492 | 74.70350 | 10700 ft | 377 kts | 342° |
| 2026-04-29 04:22 | 13.21997 | 74.69379 | 10837 ft | 392 kts | 341° |
| 2026-04-29 04:22 | 13.24577 | 74.68371 | 11170 ft | 400 kts | 341° |
| 2026-04-29 04:22 | 13.27183 | 74.67347 | 11663 ft | 403 kts | 341° |
| 2026-04-29 04:22 | 13.29807 | 74.66314 | 12181 ft | 405 kts | 341° |
| 2026-04-29 04:23 | 13.32447 | 74.65275 | 12664 ft | 408 kts | 341° |
| 2026-04-29 04:23 | 13.35107 | 74.64229 | 13124 ft | 411 kts | 341° |
| 2026-04-29 04:23 | 13.37792 | 74.63173 | 13582 ft | 415 kts | 341° |
| 2026-04-29 04:23 | 13.40499 | 74.62108 | 13973 ft | 418 kts | 341° |
| 2026-04-29 04:24 | 13.43222 | 74.61037 | 14411 ft | 420 kts | 341° |
| 2026-04-29 04:24 | 13.45951 | 74.59962 | 14879 ft | 421 kts | 341° |
| 2026-04-29 04:24 | 13.48653 | 74.58899 | 15314 ft | 422 kts | 340° |
| 2026-04-29 04:24 | 13.51405 | 74.57815 | 15728 ft | 424 kts | 340° |
| 2026-04-29 04:25 | 13.54166 | 74.56728 | 16137 ft | 426 kts | 340° |
| 2026-04-29 04:25 | 13.56938 | 74.55637 | 16545 ft | 428 kts | 340° |
| 2026-04-29 04:25 | 13.59723 | 74.54540 | 16943 ft | 429 kts | 340° |
| 2026-04-29 04:25 | 13.62519 | 74.53439 | 17340 ft | 431 kts | 339° |
| 2026-04-29 04:26 | 13.65328 | 74.52332 | 17703 ft | 433 kts | 339° |
| 2026-04-29 04:26 | 13.68147 | 74.51221 | 18062 ft | 435 kts | 339° |
| 2026-04-29 04:26 | 13.70975 | 74.50106 | 18391 ft | 436 kts | 339° |
| 2026-04-29 04:26 | 13.73819 | 74.48984 | 18698 ft | 437 kts | 338° |
| 2026-04-29 04:27 | 13.76660 | 74.47863 | 19036 ft | 438 kts | 338° |
| 2026-04-29 04:27 | 13.79512 | 74.46739 | 19328 ft | 440 kts | 338° |
| 2026-04-29 04:27 | 13.82374 | 74.45609 | 19610 ft | 442 kts | 338° |
| 2026-04-29 04:27 | 13.85250 | 74.44473 | 19888 ft | 444 kts | 338° |
| 2026-04-29 04:28 | 13.88140 | 74.43332 | 20172 ft | 445 kts | 338° |
| 2026-04-29 04:28 | 13.91040 | 74.42187 | 20449 ft | 447 kts | 338° |
| 2026-04-29 04:28 | 13.93949 | 74.41038 | 20722 ft | 449 kts | 338° |
| 2026-04-29 04:28 | 13.96869 | 74.39884 | 20989 ft | 450 kts | 338° |
| 2026-04-29 04:29 | 13.99797 | 74.38726 | 21257 ft | 452 kts | 338° |
| 2026-04-29 04:29 | 14.02738 | 74.37563 | 21526 ft | 453 kts | 338° |
| 2026-04-29 04:29 | 14.05688 | 74.36397 | 21773 ft | 455 kts | 338° |
| 2026-04-29 04:29 | 14.08642 | 74.35228 | 22086 ft | 455 kts | 338° |
| 2026-04-29 04:30 | 14.11597 | 74.34059 | 22375 ft | 455 kts | 337° |
| 2026-04-29 04:30 | 14.14558 | 74.32886 | 22606 ft | 457 kts | 337° |
| 2026-04-29 04:30 | 14.20523 | 74.30524 | 23048 ft | 461 kts | 337° |
| 2026-04-29 04:31 | 14.23503 | 74.29304 | 23280 ft | 461 kts | 335° |
| 2026-04-29 04:31 | 14.26430 | 74.27934 | 23487 ft | 462 kts | 333° |
| 2026-04-29 04:31 | 14.29328 | 74.26491 | 23670 ft | 463 kts | 332° |
| 2026-04-29 04:31 | 14.32185 | 74.25038 | 23858 ft | 464 kts | 332° |
| 2026-04-29 04:32 | 14.35080 | 74.23564 | 24043 ft | 465 kts | 332° |
| 2026-04-29 04:32 | 14.38028 | 74.22074 | 24224 ft | 466 kts | 332° |
| 2026-04-29 04:32 | 14.40912 | 74.20628 | 24405 ft | 467 kts | 332° |
| 2026-04-29 04:32 | 14.43833 | 74.19171 | 24655 ft | 466 kts | 332° |
| 2026-04-29 04:33 | 14.46751 | 74.17721 | 24824 ft | 467 kts | 332° |
| 2026-04-29 04:33 | 14.49684 | 74.16265 | 24954 ft | 468 kts | 332° |
| 2026-04-29 04:33 | 14.52627 | 74.14804 | 25087 ft | 470 kts | 332° |
| 2026-04-29 04:33 | 14.55572 | 74.13341 | 25251 ft | 471 kts | 332° |
| 2026-04-29 04:34 | 14.58527 | 74.11874 | 25410 ft | 471 kts | 332° |
| 2026-04-29 04:34 | 14.61481 | 74.10405 | 25556 ft | 472 kts | 332° |
| 2026-04-29 04:34 | 14.64448 | 74.08929 | 25692 ft | 473 kts | 332° |
| 2026-04-29 04:34 | 14.67415 | 74.07453 | 25835 ft | 474 kts | 332° |
| 2026-04-29 04:35 | 14.70390 | 74.05972 | 25976 ft | 475 kts | 332° |
| 2026-04-29 04:35 | 14.73369 | 74.04489 | 26111 ft | 476 kts | 332° |
| 2026-04-29 04:35 | 14.76357 | 74.03001 | 26245 ft | 477 kts | 332° |
| 2026-04-29 04:35 | 14.79346 | 74.01512 | 26376 ft | 478 kts | 332° |
| 2026-04-29 04:36 | 14.82339 | 74.00020 | 26504 ft | 478 kts | 332° |
| 2026-04-29 04:36 | 14.85342 | 73.98523 | 26619 ft | 479 kts | 332° |
| 2026-04-29 04:36 | 14.88346 | 73.97025 | 26756 ft | 480 kts | 332° |
| 2026-04-29 04:36 | 14.91351 | 73.95527 | 26946 ft | 479 kts | 332° |
| 2026-04-29 04:37 | 14.94346 | 73.94032 | 27162 ft | 478 kts | 332° |
| 2026-04-29 04:37 | 14.97337 | 73.92538 | 27351 ft | 477 kts | 332° |
| 2026-04-29 04:37 | 15.00322 | 73.91045 | 27526 ft | 477 kts | 332° |
| 2026-04-29 04:37 | 15.03309 | 73.89550 | 27710 ft | 477 kts | 331° |
| 2026-04-29 04:38 | 15.06293 | 73.88057 | 27929 ft | 476 kts | 331° |
| 2026-04-29 04:38 | 15.09267 | 73.86568 | 28193 ft | 474 kts | 331° |
| 2026-04-29 04:38 | 15.12227 | 73.85086 | 28429 ft | 473 kts | 331° |
| 2026-04-29 04:38 | 15.15187 | 73.83603 | 28614 ft | 473 kts | 331° |
| 2026-04-29 04:39 | 15.18151 | 73.82117 | 28797 ft | 473 kts | 331° |
| 2026-04-29 04:39 | 15.21110 | 73.80634 | 29015 ft | 472 kts | 331° |
| 2026-04-29 04:39 | 15.24062 | 73.79154 | 29253 ft | 471 kts | 331° |
| 2026-04-29 04:39 | 15.27014 | 73.77673 | 29480 ft | 471 kts | 331° |
| 2026-04-29 04:40 | 15.29918 | 73.76216 | 29698 ft | 470 kts | 331° |
| 2026-04-29 04:40 | 15.32865 | 73.74737 | 29905 ft | 470 kts | 331° |
| 2026-04-29 04:40 | 15.35805 | 73.73261 | 30108 ft | 469 kts | 331° |
| 2026-04-29 04:40 | 15.38741 | 73.71787 | 30332 ft | 468 kts | 330° |
| 2026-04-29 04:41 | 15.41662 | 73.70321 | 30632 ft | 464 kts | 330° |
| 2026-04-29 04:41 | 15.44555 | 73.68868 | 30929 ft | 461 kts | 330° |
| 2026-04-29 04:41 | 15.47442 | 73.67417 | 31109 ft | 461 kts | 330° |
| 2026-04-29 04:41 | 15.50326 | 73.65966 | 31284 ft | 461 kts | 330° |
| 2026-04-29 04:42 | 15.53213 | 73.64513 | 31480 ft | 461 kts | 330° |
| 2026-04-29 04:42 | 15.56094 | 73.63063 | 31736 ft | 459 kts | 330° |
| 2026-04-29 04:42 | 15.58961 | 73.61620 | 32010 ft | 457 kts | 330° |
| 2026-04-29 04:42 | 15.61821 | 73.60180 | 32231 ft | 456 kts | 330° |
| 2026-04-29 04:43 | 15.64676 | 73.58743 | 32467 ft | 456 kts | 330° |
| 2026-04-29 04:43 | 15.67526 | 73.57307 | 32699 ft | 455 kts | 330° |
| 2026-04-29 04:43 | 15.70365 | 73.55876 | 32951 ft | 453 kts | 330° |
| 2026-04-29 04:43 | 15.73201 | 73.54447 | 33234 ft | 452 kts | 330° |
| 2026-04-29 04:44 | 15.76025 | 73.53023 | 33503 ft | 451 kts | 330° |
| 2026-04-29 04:44 | 15.78846 | 73.51600 | 33750 ft | 450 kts | 330° |
| 2026-04-29 04:44 | 15.81660 | 73.50180 | 33981 ft | 449 kts | 330° |
| 2026-04-29 04:44 | 15.84463 | 73.48765 | 34201 ft | 448 kts | 331° |
| 2026-04-29 04:45 | 15.87266 | 73.47350 | 34379 ft | 448 kts | 331° |
| 2026-04-29 04:45 | 15.90072 | 73.45932 | 34530 ft | 449 kts | 331° |
| 2026-04-29 04:45 | 15.92880 | 73.44514 | 34702 ft | 448 kts | 331° |
| 2026-04-29 04:45 | 15.95680 | 73.43098 | 34879 ft | 448 kts | 331° |
| 2026-04-29 04:46 | 15.98493 | 73.41676 | 34890 ft | 451 kts | 331° |
| 2026-04-29 04:46 | 16.04127 | 73.38827 | 34905 ft | 449 kts | 332° |
| 2026-04-29 04:47 | 16.09729 | 73.35993 | 34887 ft | 447 kts | 332° |
| 2026-04-29 04:47 | 16.15263 | 73.33190 | 34873 ft | 444 kts | 332° |
| 2026-04-29 04:48 | 16.20814 | 73.30376 | 34843 ft | 443 kts | 332° |
| 2026-04-29 04:48 | 16.26352 | 73.27567 | 34844 ft | 443 kts | 332° |
| 2026-04-29 04:49 | 16.31888 | 73.24759 | 34846 ft | 443 kts | 332° |
| 2026-04-29 04:49 | 16.37441 | 73.21937 | 34855 ft | 444 kts | 332° |
| 2026-04-29 04:50 | 16.43010 | 73.19103 | 34848 ft | 446 kts | 332° |
| 2026-04-29 04:50 | 16.48596 | 73.16258 | 34847 ft | 448 kts | 332° |
| 2026-04-29 04:51 | 16.54210 | 73.13397 | 34845 ft | 450 kts | 332° |
| 2026-04-29 04:51 | 16.59830 | 73.10520 | 34844 ft | 450 kts | 330° |
| 2026-04-29 04:52 | 16.65327 | 73.07388 | 34842 ft | 450 kts | 328° |
| 2026-04-29 04:52 | 16.70769 | 73.04157 | 34845 ft | 450 kts | 328° |
| 2026-04-29 04:53 | 16.76228 | 73.00942 | 34840 ft | 450 kts | 329° |
| 2026-04-29 04:53 | 16.81695 | 72.97748 | 34841 ft | 450 kts | 329° |
| 2026-04-29 04:54 | 16.87159 | 72.94559 | 34838 ft | 450 kts | 329° |
| 2026-04-29 04:54 | 16.92614 | 72.91373 | 34839 ft | 449 kts | 329° |
| 2026-04-29 04:55 | 16.98066 | 72.88184 | 34838 ft | 449 kts | 329° |
| 2026-04-29 04:55 | 17.03514 | 72.84997 | 34844 ft | 449 kts | 329° |
| 2026-04-29 04:56 | 17.08277 | 72.82864 | 34840 ft | 451 kts | 343° |
| 2026-04-29 04:56 | 17.15536 | 72.81953 | 34842 ft | 456 kts | 358° |
| 2026-04-29 04:57 | 17.21883 | 72.82164 | 34838 ft | 457 kts | 359° |
| 2026-04-29 04:57 | 17.27205 | 72.82365 | 34837 ft | 457 kts | 359° |
| 2026-04-29 04:58 | 17.33556 | 72.82571 | 34847 ft | 456 kts | 359° |
| 2026-04-29 04:58 | 17.39905 | 72.82751 | 34841 ft | 456 kts | 359° |
| 2026-04-29 04:59 | 17.46252 | 72.82923 | 34836 ft | 456 kts | 359° |
| 2026-04-29 04:59 | 17.52599 | 72.83095 | 34837 ft | 456 kts | 359° |
| 2026-04-29 05:00 | 17.58902 | 72.83267 | 34837 ft | 456 kts | 359° |
| 2026-04-29 05:00 | 17.65288 | 72.83441 | 34841 ft | 456 kts | 359° |
| 2026-04-29 05:01 | 17.71580 | 72.83614 | 34844 ft | 455 kts | 359° |
| 2026-04-29 05:01 | 17.77912 | 72.83788 | 34836 ft | 455 kts | 359° |
| 2026-04-29 05:02 | 17.84236 | 72.83961 | 34839 ft | 455 kts | 359° |
| 2026-04-29 05:02 | 17.90560 | 72.84135 | 34838 ft | 454 kts | 359° |
| 2026-04-29 05:03 | 17.96875 | 72.84308 | 34839 ft | 454 kts | 359° |
| 2026-04-29 05:03 | 18.03183 | 72.84482 | 34838 ft | 454 kts | 359° |
| 2026-04-29 05:04 | 18.09496 | 72.84655 | 34841 ft | 454 kts | 359° |
| 2026-04-29 05:04 | 18.15806 | 72.84829 | 34841 ft | 453 kts | 359° |
| 2026-04-29 05:05 | 18.22115 | 72.85003 | 34842 ft | 454 kts | 359° |
| 2026-04-29 05:05 | 18.28423 | 72.85177 | 34841 ft | 454 kts | 359° |
| 2026-04-29 05:06 | 18.34734 | 72.85351 | 34849 ft | 454 kts | 359° |
| 2026-04-29 05:06 | 18.41053 | 72.85526 | 34846 ft | 454 kts | 359° |
| 2026-04-29 05:07 | 18.47372 | 72.85700 | 34841 ft | 454 kts | 359° |
| 2026-04-29 05:07 | 18.53693 | 72.85875 | 34843 ft | 455 kts | 359° |
| 2026-04-29 05:08 | 18.60021 | 72.86051 | 34840 ft | 455 kts | 359° |
| 2026-04-29 05:08 | 18.66349 | 72.86225 | 34852 ft | 455 kts | 359° |
| 2026-04-29 05:09 | 18.72682 | 72.86401 | 34841 ft | 455 kts | 359° |
| 2026-04-29 05:09 | 18.79011 | 72.86577 | 34835 ft | 455 kts | 359° |
| 2026-04-29 05:10 | 18.85335 | 72.86753 | 34837 ft | 455 kts | 359° |
| 2026-04-29 05:10 | 18.91658 | 72.86928 | 34836 ft | 454 kts | 359° |
| 2026-04-29 05:11 | 18.97931 | 72.87103 | 34835 ft | 454 kts | 359° |
| 2026-04-29 05:11 | 19.04289 | 72.87280 | 34857 ft | 454 kts | 359° |
| 2026-04-29 05:12 | 19.10549 | 72.87463 | 34886 ft | 453 kts | 359° |
| 2026-04-29 05:12 | 19.16853 | 72.87725 | 34887 ft | 453 kts | 0° |
| 2026-04-29 05:13 | 19.23152 | 72.88010 | 34879 ft | 453 kts | 0° |
| 2026-04-29 05:13 | 19.29454 | 72.88288 | 34849 ft | 453 kts | 360° |
| 2026-04-29 05:14 | 19.35755 | 72.88559 | 34849 ft | 453 kts | 360° |
| 2026-04-29 05:14 | 19.42052 | 72.88829 | 34841 ft | 453 kts | 360° |
| 2026-04-29 05:15 | 19.48349 | 72.89098 | 34833 ft | 453 kts | 360° |
| 2026-04-29 05:15 | 19.54646 | 72.89367 | 34845 ft | 452 kts | 360° |
| 2026-04-29 05:16 | 19.60937 | 72.89637 | 34838 ft | 453 kts | 360° |
| 2026-04-29 05:16 | 19.67234 | 72.89907 | 34848 ft | 452 kts | 0° |
| 2026-04-29 05:17 | 19.73519 | 72.90177 | 34832 ft | 452 kts | 0° |
| 2026-04-29 05:17 | 19.79798 | 72.90447 | 34834 ft | 451 kts | 0° |
| 2026-04-29 05:18 | 19.86060 | 72.90716 | 34839 ft | 450 kts | 0° |
| 2026-04-29 05:18 | 19.92275 | 72.90984 | 34832 ft | 450 kts | 0° |
| 2026-04-29 05:19 | 19.98569 | 72.91255 | 34850 ft | 449 kts | 0° |
| 2026-04-29 05:19 | 20.01767 | 72.91393 | 34840 ft | 449 kts | 0° |
| 2026-04-29 05:20 | 20.08083 | 72.91665 | 34837 ft | 448 kts | 0° |
| 2026-04-29 05:20 | 20.14271 | 72.91932 | 34833 ft | 448 kts | 0° |
| 2026-04-29 05:21 | 20.20491 | 72.92201 | 34833 ft | 447 kts | 0° |
| 2026-04-29 05:21 | 20.26696 | 72.92469 | 34833 ft | 446 kts | 0° |
| 2026-04-29 05:22 | 20.32898 | 72.92737 | 34837 ft | 446 kts | 360° |
| 2026-04-29 05:22 | 20.39102 | 72.93006 | 34827 ft | 445 kts | 360° |
| 2026-04-29 05:23 | 20.45289 | 72.93274 | 34826 ft | 444 kts | 360° |
| 2026-04-29 05:23 | 20.51467 | 72.93542 | 34826 ft | 444 kts | 360° |
| 2026-04-29 05:24 | 20.57633 | 72.93810 | 34826 ft | 443 kts | 360° |
| 2026-04-29 05:24 | 20.63800 | 72.94078 | 34836 ft | 443 kts | 360° |
| 2026-04-29 05:25 | 20.69954 | 72.94345 | 34822 ft | 442 kts | 360° |
| 2026-04-29 05:25 | 20.76096 | 72.94612 | 34824 ft | 441 kts | 360° |
| 2026-04-29 05:26 | 20.82232 | 72.94850 | 34823 ft | 441 kts | 359° |
| 2026-04-29 05:26 | 20.88355 | 72.95073 | 34822 ft | 440 kts | 359° |
| 2026-04-29 05:27 | 20.94476 | 72.95300 | 34842 ft | 440 kts | 359° |
| 2026-04-29 05:27 | 21.03643 | 72.95644 | 34825 ft | 439 kts | 359° |
| 2026-04-29 05:28 | 21.09744 | 72.95874 | 34839 ft | 438 kts | 359° |
| 2026-04-29 05:28 | 21.15835 | 72.96103 | 34847 ft | 438 kts | 359° |
| 2026-04-29 05:29 | 21.21883 | 72.96357 | 34844 ft | 438 kts | 360° |
| 2026-04-29 05:29 | 21.27962 | 72.96686 | 34839 ft | 437 kts | 0° |
| 2026-04-29 05:30 | 21.34040 | 72.97017 | 34830 ft | 437 kts | 0° |
| 2026-04-29 05:30 | 21.40119 | 72.97339 | 34829 ft | 437 kts | 360° |
| 2026-04-29 05:31 | 21.46203 | 72.97658 | 34825 ft | 438 kts | 360° |
| 2026-04-29 05:31 | 21.52288 | 72.97978 | 34825 ft | 438 kts | 360° |
| 2026-04-29 05:32 | 21.58373 | 72.98415 | 34830 ft | 440 kts | 5° |
| 2026-04-29 05:32 | 21.64326 | 73.00122 | 34828 ft | 444 kts | 13° |
| 2026-04-29 05:33 | 21.70235 | 73.02088 | 34814 ft | 444 kts | 13° |
| 2026-04-29 05:33 | 21.76142 | 73.04026 | 34812 ft | 444 kts | 13° |
| 2026-04-29 05:34 | 21.82056 | 73.05945 | 34813 ft | 444 kts | 12° |
| 2026-04-29 05:34 | 21.87965 | 73.07858 | 34813 ft | 443 kts | 12° |
| 2026-04-29 05:35 | 21.93871 | 73.09772 | 34819 ft | 443 kts | 12° |
| 2026-04-29 05:35 | 21.99770 | 73.11686 | 34813 ft | 443 kts | 12° |
| 2026-04-29 05:36 | 22.05670 | 73.13602 | 34818 ft | 442 kts | 12° |
| 2026-04-29 05:36 | 22.11560 | 73.15517 | 34821 ft | 442 kts | 12° |
| 2026-04-29 05:37 | 22.17451 | 73.17433 | 34826 ft | 442 kts | 12° |
| 2026-04-29 05:37 | 22.23338 | 73.19351 | 34840 ft | 442 kts | 12° |
| 2026-04-29 05:38 | 22.29222 | 73.21269 | 34829 ft | 442 kts | 12° |
| 2026-04-29 05:38 | 22.35067 | 73.23157 | 34830 ft | 441 kts | 11° |
| 2026-04-29 05:39 | 22.40991 | 73.24865 | 34830 ft | 440 kts | 10° |
| 2026-04-29 05:39 | 22.46919 | 73.26525 | 34825 ft | 440 kts | 10° |
| 2026-04-29 05:40 | 22.52844 | 73.28211 | 34808 ft | 441 kts | 10° |
| 2026-04-29 05:40 | 22.58776 | 73.29916 | 34811 ft | 441 kts | 10° |
| 2026-04-29 05:41 | 22.64708 | 73.31625 | 34809 ft | 442 kts | 10° |
| 2026-04-29 05:41 | 22.70652 | 73.33340 | 34806 ft | 442 kts | 10° |
| 2026-04-29 05:42 | 22.76600 | 73.35056 | 34804 ft | 443 kts | 10° |
| 2026-04-29 05:42 | 22.82556 | 73.36777 | 34802 ft | 443 kts | 10° |
| 2026-04-29 05:43 | 22.88514 | 73.38502 | 34813 ft | 443 kts | 10° |
| 2026-04-29 05:43 | 22.94473 | 73.40234 | 34802 ft | 443 kts | 10° |
| 2026-04-29 05:44 | 22.99422 | 73.41675 | 34807 ft | 443 kts | 10° |
| 2026-04-29 05:44 | 23.05379 | 73.43411 | 34799 ft | 443 kts | 10° |
| 2026-04-29 05:45 | 23.11333 | 73.45148 | 34801 ft | 443 kts | 10° |
| 2026-04-29 05:45 | 23.17282 | 73.46885 | 34802 ft | 442 kts | 10° |
| 2026-04-29 05:46 | 23.23225 | 73.48621 | 34804 ft | 442 kts | 10° |
| 2026-04-29 05:46 | 23.29169 | 73.50359 | 34800 ft | 442 kts | 10° |
| 2026-04-29 05:47 | 23.35105 | 73.52096 | 34800 ft | 442 kts | 10° |
| 2026-04-29 05:47 | 23.41045 | 73.53837 | 34799 ft | 442 kts | 10° |
| 2026-04-29 05:48 | 23.46938 | 73.55565 | 34796 ft | 442 kts | 10° |
| 2026-04-29 05:48 | 23.52869 | 73.57306 | 34808 ft | 441 kts | 9° |
| 2026-04-29 05:49 | 23.58839 | 73.59060 | 34796 ft | 441 kts | 9° |
| 2026-04-29 05:49 | 23.64767 | 73.60803 | 34797 ft | 441 kts | 9° |
| 2026-04-29 05:50 | 23.70650 | 73.62535 | 34798 ft | 441 kts | 9° |
| 2026-04-29 05:50 | 23.76574 | 73.64280 | 34797 ft | 441 kts | 9° |
| 2026-04-29 05:51 | 23.82490 | 73.66025 | 34817 ft | 441 kts | 9° |
| 2026-04-29 05:51 | 23.88416 | 73.67775 | 34792 ft | 441 kts | 9° |
| 2026-04-29 05:52 | 23.94339 | 73.69525 | 34784 ft | 440 kts | 9° |
| 2026-04-29 05:52 | 24.00250 | 73.71274 | 34787 ft | 440 kts | 9° |
| 2026-04-29 05:53 | 24.06167 | 73.73022 | 34783 ft | 440 kts | 9° |
| 2026-04-29 05:53 | 24.12078 | 73.74763 | 34792 ft | 440 kts | 9° |
| 2026-04-29 05:54 | 24.17986 | 73.76505 | 34786 ft | 440 kts | 9° |
| 2026-04-29 05:54 | 24.23902 | 73.78252 | 34782 ft | 440 kts | 9° |
| 2026-04-29 05:55 | 24.29816 | 73.80001 | 34775 ft | 440 kts | 9° |
| 2026-04-29 05:55 | 24.35730 | 73.81751 | 34771 ft | 440 kts | 9° |
| 2026-04-29 05:56 | 24.41645 | 73.83503 | 34772 ft | 440 kts | 9° |
| 2026-04-29 05:56 | 24.47560 | 73.85258 | 34772 ft | 440 kts | 9° |
| 2026-04-29 05:57 | 24.53473 | 73.87013 | 34775 ft | 440 kts | 9° |
| 2026-04-29 05:57 | 24.59394 | 73.88777 | 34773 ft | 442 kts | 10° |
| 2026-04-29 05:58 | 24.65085 | 73.91536 | 34863 ft | 454 kts | 23° |
| 2026-04-29 05:58 | 24.70497 | 73.95028 | 34853 ft | 454 kts | 24° |
| 2026-04-29 05:59 | 24.75950 | 73.98551 | 34833 ft | 454 kts | 23° |
| 2026-04-29 05:59 | 24.81418 | 74.02051 | 34826 ft | 455 kts | 23° |
| 2026-04-29 06:00 | 24.86898 | 74.05542 | 34796 ft | 455 kts | 23° |
| 2026-04-29 06:00 | 24.92389 | 74.09041 | 34765 ft | 456 kts | 23° |
| 2026-04-29 06:01 | 24.97878 | 74.12545 | 34759 ft | 456 kts | 23° |
| 2026-04-29 06:01 | 25.03371 | 74.16054 | 34762 ft | 457 kts | 23° |
| 2026-04-29 06:02 | 25.08870 | 74.19571 | 34754 ft | 457 kts | 23° |
| 2026-04-29 06:02 | 25.14369 | 74.23091 | 34769 ft | 457 kts | 23° |
| 2026-04-29 06:03 | 25.19874 | 74.26620 | 34757 ft | 458 kts | 23° |
| 2026-04-29 06:03 | 25.25384 | 74.30155 | 34757 ft | 458 kts | 23° |
| 2026-04-29 06:04 | 25.30893 | 74.33694 | 34752 ft | 458 kts | 23° |
| 2026-04-29 06:04 | 25.36401 | 74.37235 | 34751 ft | 458 kts | 23° |
| 2026-04-29 06:05 | 25.41911 | 74.40782 | 34766 ft | 458 kts | 23° |
| 2026-04-29 06:05 | 25.47393 | 74.44314 | 34752 ft | 459 kts | 23° |
| 2026-04-29 06:06 | 25.52916 | 74.47876 | 34751 ft | 460 kts | 23° |
| 2026-04-29 06:06 | 25.58446 | 74.51447 | 34742 ft | 460 kts | 23° |
| 2026-04-29 06:07 | 25.63979 | 74.55024 | 34742 ft | 461 kts | 23° |
| 2026-04-29 06:07 | 25.69515 | 74.58607 | 34741 ft | 461 kts | 23° |
| 2026-04-29 06:08 | 25.75055 | 74.62196 | 34753 ft | 461 kts | 23° |
| 2026-04-29 06:08 | 25.80600 | 74.65792 | 34747 ft | 462 kts | 23° |
| 2026-04-29 06:09 | 25.86147 | 74.69393 | 34747 ft | 462 kts | 23° |
| 2026-04-29 06:09 | 25.91697 | 74.73001 | 34748 ft | 462 kts | 23° |
| 2026-04-29 06:10 | 25.97244 | 74.76611 | 34748 ft | 462 kts | 23° |
| 2026-04-29 06:10 | 26.02798 | 74.80229 | 34747 ft | 462 kts | 23° |
| 2026-04-29 06:11 | 26.08347 | 74.83848 | 34758 ft | 463 kts | 23° |
| 2026-04-29 06:11 | 26.13862 | 74.87448 | 34750 ft | 463 kts | 23° |
| 2026-04-29 06:12 | 26.19417 | 74.91079 | 34748 ft | 463 kts | 23° |
| 2026-04-29 06:12 | 26.24969 | 74.94712 | 34756 ft | 463 kts | 23° |
| 2026-04-29 06:13 | 26.30521 | 74.98350 | 34754 ft | 463 kts | 23° |
| 2026-04-29 06:13 | 26.36071 | 75.01990 | 34744 ft | 463 kts | 23° |
| 2026-04-29 06:14 | 26.41622 | 75.05635 | 34758 ft | 463 kts | 23° |
| 2026-04-29 06:14 | 26.47176 | 75.09278 | 34745 ft | 463 kts | 23° |
| 2026-04-29 06:15 | 26.52746 | 75.12915 | 34739 ft | 464 kts | 23° |
| 2026-04-29 06:15 | 26.58314 | 75.16554 | 34738 ft | 464 kts | 23° |
| 2026-04-29 06:16 | 26.63886 | 75.20204 | 34737 ft | 464 kts | 23° |
| 2026-04-29 06:16 | 26.69456 | 75.23857 | 34735 ft | 464 kts | 23° |
| 2026-04-29 06:17 | 26.75034 | 75.27520 | 34739 ft | 465 kts | 23° |
| 2026-04-29 06:17 | 26.80617 | 75.31191 | 34731 ft | 466 kts | 23° |
| 2026-04-29 06:18 | 26.86206 | 75.34870 | 34732 ft | 466 kts | 23° |
| 2026-04-29 06:18 | 26.91798 | 75.38555 | 34731 ft | 466 kts | 23° |
| 2026-04-29 06:19 | 26.97394 | 75.42247 | 34734 ft | 467 kts | 23° |
| 2026-04-29 06:19 | 27.02996 | 75.45946 | 34750 ft | 468 kts | 24° |
| 2026-04-29 06:20 | 27.08612 | 75.49661 | 34743 ft | 469 kts | 24° |
| 2026-04-29 06:20 | 27.14245 | 75.53390 | 34740 ft | 471 kts | 24° |
| 2026-04-29 06:21 | 27.19909 | 75.57143 | 34489 ft | 476 kts | 24° |
| 2026-04-29 06:21 | 27.22755 | 75.59032 | 34271 ft | 472 kts | 24° |
| 2026-04-29 06:21 | 27.25563 | 75.60901 | 33815 ft | 467 kts | 25° |
| 2026-04-29 06:22 | 27.28364 | 75.62762 | 33041 ft | 469 kts | 25° |
| 2026-04-29 06:22 | 27.31192 | 75.64639 | 32190 ft | 473 kts | 25° |
| 2026-04-29 06:22 | 27.34038 | 75.66529 | 31345 ft | 477 kts | 26° |
| 2026-04-29 06:22 | 27.36916 | 75.68442 | 30443 ft | 483 kts | 27° |
| 2026-04-29 06:23 | 27.39815 | 75.70372 | 29557 ft | 486 kts | 27° |
| 2026-04-29 06:23 | 27.42733 | 75.72318 | 28589 ft | 488 kts | 27° |
| 2026-04-29 06:23 | 27.45657 | 75.74270 | 27621 ft | 490 kts | 27° |
| 2026-04-29 06:23 | 27.48554 | 75.76207 | 27344 ft | 477 kts | 27° |
| 2026-04-29 06:24 | 27.51405 | 75.78113 | 26424 ft | 478 kts | 26° |
| 2026-04-29 06:24 | 27.54250 | 75.80011 | 25843 ft | 473 kts | 27° |
| 2026-04-29 06:24 | 27.57075 | 75.81899 | 25168 ft | 470 kts | 27° |
| 2026-04-29 06:24 | 27.59882 | 75.83777 | 24510 ft | 468 kts | 26° |
| 2026-04-29 06:25 | 27.62673 | 75.85644 | 23848 ft | 466 kts | 26° |
| 2026-04-29 06:25 | 27.65557 | 75.87237 | 23059 ft | 459 kts | 15° |
| 2026-04-29 06:25 | 27.68588 | 75.88338 | 22251 ft | 455 kts | 12° |
| 2026-04-29 06:25 | 27.71582 | 75.89278 | 21594 ft | 450 kts | 11° |
| 2026-04-29 06:26 | 27.74587 | 75.90191 | 20937 ft | 445 kts | 11° |
| 2026-04-29 06:26 | 27.77551 | 75.91111 | 20315 ft | 441 kts | 11° |
| 2026-04-29 06:26 | 27.80496 | 75.92055 | 19718 ft | 437 kts | 12° |
| 2026-04-29 06:26 | 27.83403 | 75.93012 | 19048 ft | 434 kts | 12° |
| 2026-04-29 06:27 | 27.86293 | 75.93976 | 18427 ft | 431 kts | 12° |
| 2026-04-29 06:27 | 27.89159 | 75.94945 | 17764 ft | 429 kts | 13° |
| 2026-04-29 06:27 | 27.92006 | 75.95912 | 17088 ft | 426 kts | 13° |
| 2026-04-29 06:27 | 27.94828 | 75.96871 | 16471 ft | 421 kts | 13° |
| 2026-04-29 06:28 | 27.97587 | 75.97809 | 16300 ft | 406 kts | 13° |
| 2026-04-29 06:28 | 28.00253 | 75.98716 | 16112 ft | 393 kts | 13° |
| 2026-04-29 06:28 | 28.02831 | 75.99592 | 15943 ft | 381 kts | 13° |
| 2026-04-29 06:28 | 28.05330 | 76.00440 | 15783 ft | 370 kts | 13° |
| 2026-04-29 06:29 | 28.07757 | 76.01263 | 15626 ft | 359 kts | 13° |
| 2026-04-29 06:29 | 28.10116 | 76.02063 | 15469 ft | 349 kts | 13° |
| 2026-04-29 06:29 | 28.12406 | 76.02840 | 15337 ft | 339 kts | 13° |
| 2026-04-29 06:29 | 28.14642 | 76.03598 | 15197 ft | 331 kts | 13° |
| 2026-04-29 06:30 | 28.16817 | 76.04337 | 15061 ft | 322 kts | 13° |
| 2026-04-29 06:30 | 28.20986 | 76.05770 | 14783 ft | 302 kts | 17° |
| 2026-04-29 06:30 | 28.22745 | 76.07001 | 14596 ft | 298 kts | 42° |
| 2026-04-29 06:31 | 28.23945 | 76.08922 | 14337 ft | 300 kts | 59° |
| 2026-04-29 06:31 | 28.24899 | 76.11034 | 13819 ft | 304 kts | 62° |
| 2026-04-29 06:31 | 28.25832 | 76.13182 | 13355 ft | 303 kts | 62° |
| 2026-04-29 06:31 | 28.26755 | 76.15316 | 12838 ft | 299 kts | 62° |
| 2026-04-29 06:32 | 28.27666 | 76.17409 | 12331 ft | 293 kts | 62° |
| 2026-04-29 06:32 | 28.28565 | 76.19462 | 11828 ft | 288 kts | 62° |
| 2026-04-29 06:32 | 28.29453 | 76.21482 | 11339 ft | 284 kts | 61° |
| 2026-04-29 06:32 | 28.30318 | 76.23444 | 10871 ft | 280 kts | 61° |
| 2026-04-29 06:33 | 28.30903 | 76.24770 | 10626 ft | 277 kts | 61° |
| 2026-04-29 06:33 | 28.31760 | 76.26710 | 10281 ft | 274 kts | 61° |
| 2026-04-29 06:33 | 28.32884 | 76.29255 | 9818 ft | 271 kts | 62° |
| 2026-04-29 06:33 | 28.33453 | 76.30543 | 9583 ft | 270 kts | 61° |
| 2026-04-29 06:34 | 28.34561 | 76.33051 | 9101 ft | 266 kts | 62° |
| 2026-04-29 06:34 | 28.35115 | 76.34308 | 8943 ft | 261 kts | 62° |
| 2026-04-29 06:34 | 28.35920 | 76.36134 | 8677 ft | 256 kts | 62° |
| 2026-04-29 06:34 | 28.36708 | 76.37920 | 8420 ft | 250 kts | 62° |
| 2026-04-29 06:35 | 28.37480 | 76.39670 | 8161 ft | 245 kts | 62° |
| 2026-04-29 06:35 | 28.38241 | 76.41380 | 7916 ft | 240 kts | 60° |
| 2026-04-29 06:35 | 28.39061 | 76.43019 | 7668 ft | 237 kts | 58° |
| 2026-04-29 06:35 | 28.39887 | 76.44620 | 7426 ft | 234 kts | 58° |
| 2026-04-29 06:36 | 28.40712 | 76.46207 | 7182 ft | 233 kts | 58° |
| 2026-04-29 06:36 | 28.41538 | 76.47790 | 6960 ft | 233 kts | 58° |
| 2026-04-29 06:36 | 28.42357 | 76.49346 | 6734 ft | 232 kts | 58° |
| 2026-04-29 06:36 | 28.43189 | 76.50917 | 6506 ft | 232 kts | 59° |
| 2026-04-29 06:37 | 28.44043 | 76.52473 | 6291 ft | 232 kts | 58° |
| 2026-04-29 06:37 | 28.44912 | 76.54045 | 6052 ft | 232 kts | 58° |
| 2026-04-29 06:37 | 28.45771 | 76.55590 | 5818 ft | 231 kts | 58° |
| 2026-04-29 06:37 | 28.46624 | 76.57105 | 5579 ft | 230 kts | 58° |
| 2026-04-29 06:38 | 28.47500 | 76.58641 | 5324 ft | 227 kts | 58° |
| 2026-04-29 06:38 | 28.48341 | 76.60103 | 5083 ft | 222 kts | 59° |
| 2026-04-29 06:38 | 28.49190 | 76.61551 | 4838 ft | 218 kts | 58° |
| 2026-04-29 06:38 | 28.50033 | 76.62966 | 4608 ft | 215 kts | 58° |
| 2026-04-29 06:39 | 28.50870 | 76.64367 | 4373 ft | 213 kts | 59° |
| 2026-04-29 06:39 | 28.51696 | 76.65758 | 4129 ft | 212 kts | 59° |
| 2026-04-29 06:39 | 28.52522 | 76.67144 | 3901 ft | 211 kts | 58° |
| 2026-04-29 06:39 | 28.53352 | 76.68518 | 3639 ft | 210 kts | 58° |
| 2026-04-29 06:40 | 28.54173 | 76.69892 | 3424 ft | 210 kts | 58° |
| 2026-04-29 06:40 | 28.54999 | 76.71282 | 3184 ft | 214 kts | 57° |
| 2026-04-29 06:40 | 28.55823 | 76.72669 | 2970 ft | 210 kts | 57° |
| 2026-04-29 06:40 | 28.56649 | 76.74038 | 2659 ft | 211 kts | 58° |
| 2026-04-29 06:41 | 28.57455 | 76.75369 | 2600 ft | 198 kts | 59° |
| 2026-04-29 06:41 | 28.58227 | 76.76663 | 2614 ft | 199 kts | 58° |
| 2026-04-29 06:41 | 28.59005 | 76.77984 | 2610 ft | 202 kts | 59° |
| 2026-04-29 06:41 | 28.59807 | 76.79316 | 2614 ft | 204 kts | 58° |
| 2026-04-29 06:42 | 28.60616 | 76.80657 | 2592 ft | 207 kts | 58° |
| 2026-04-29 06:42 | 28.61411 | 76.82024 | 2578 ft | 206 kts | 58° |
| 2026-04-29 06:42 | 28.62124 | 76.83426 | 2551 ft | 204 kts | 75° |
| 2026-04-29 06:42 | 28.62117 | 76.84976 | 2578 ft | 197 kts | 108° |
| 2026-04-29 06:43 | 28.61759 | 76.86495 | 2568 ft | 198 kts | 103° |
| 2026-04-29 06:43 | 28.61448 | 76.87989 | 2589 ft | 190 kts | 104° |
| 2026-04-29 06:43 | 28.61124 | 76.89449 | 2592 ft | 190 kts | 105° |
| 2026-04-29 06:43 | 28.60788 | 76.90905 | 2585 ft | 189 kts | 107° |
| 2026-04-29 06:44 | 28.60455 | 76.92348 | 2605 ft | 192 kts | 106° |
| 2026-04-29 06:44 | 28.60117 | 76.93806 | 2590 ft | 183 kts | 106° |
| 2026-04-29 06:44 | 28.59802 | 76.95169 | 2614 ft | 180 kts | 106° |
| 2026-04-29 06:44 | 28.59479 | 76.96560 | 2592 ft | 178 kts | 106° |
| 2026-04-29 06:45 | 28.59172 | 76.97884 | 2516 ft | 176 kts | 106° |
| 2026-04-29 06:45 | 28.58865 | 76.99213 | 2328 ft | 167 kts | 106° |
| 2026-04-29 06:45 | 28.58573 | 77.00472 | 2124 ft | 162 kts | 106° |
| 2026-04-29 06:45 | 28.58288 | 77.01705 | 1930 ft | 161 kts | 107° |
| 2026-04-29 06:46 | 28.58008 | 77.02915 | 1739 ft | 160 kts | 105° |
| 2026-04-29 06:46 | 28.57723 | 77.04155 | 1525 ft | 158 kts | 105° |
| 2026-04-29 06:46 | 28.57450 | 77.05333 | 1331 ft | 154 kts | 104° |
| 2026-04-29 06:46 | 28.57169 | 77.06516 | 1143 ft | 157 kts | 105° |
| 2026-04-29 06:47 | 28.56906 | 77.07713 | 936 ft | 154 kts | 101° |
| 2026-04-29 06:47 | 28.56631 | 77.08887 | 753 ft | 150 kts | 104° |
| 2026-04-29 06:47 | 28.56408 | 77.09865 | 745 ft | 98 kts | 104° |
| 2026-04-29 06:47 | 28.56286 | 77.10384 | 750 ft | 50 kts | 105° |
| 2026-04-29 06:48 | 28.56214 | 77.10725 | 749 ft | 36 kts | 97° |
| 2026-04-29 06:48 | 28.56240 | 77.10980 | 746 ft | 27 kts | 72° |
| 2026-04-29 06:48 | 28.56290 | 77.11075 | 748 ft | 10 kts | 79° |
| 2026-04-29 06:48 | 28.56275 | 77.11152 | 748 ft | 10 kts | 106° |
| 2026-04-29 06:49 | 28.56267 | 77.11229 | 746 ft | 10 kts | 79° |
| 2026-04-29 06:49 | 28.56270 | 77.11240 | 749 ft | 0 kts | 71° |
| 2026-04-29 06:52 | 28.56270 | 77.11242 | 749 ft | 3 kts | 75° |
| 2026-04-29 06:52 | 28.56250 | 77.11305 | 747 ft | 13 kts | 117° |
| 2026-04-29 06:52 | 28.56208 | 77.11431 | 749 ft | 17 kts | 104° |
| 2026-04-29 06:52 | 28.56150 | 77.11542 | 747 ft | 16 kts | 118° |
| 2026-04-29 06:53 | 28.56185 | 77.11656 | 748 ft | 16 kts | 60° |
| 2026-04-29 06:53 | 28.56273 | 77.11701 | 753 ft | 15 kts | 353° |
| 2026-04-29 06:53 | 28.56375 | 77.11690 | 753 ft | 14 kts | 4° |
| 2026-04-29 06:53 | 28.56423 | 77.11701 | 751 ft | 0 kts | 11° |